Time;durP1;ratioP1;P1;durP2;ratioP2;P2;SDS_P1;SDS_P2;PMS_P1;PMS_P2;Temp;Humidity;BMP_temperature;BMP_pressure;BME280_temperature;BME280_humidity;BME280_pressure;Samples;Min_cycle;Max_cycle;Signal;HPM_P1;HPM_P2
2023/07/17 00:01:05;;;;;;;;;;;;;;;27.60;93.11;98021.41;5034824;28;19925;-78
2023/07/17 00:03:31;;;;;;;;;;;;;;;27.56;93.50;98020.56;5041936;28;19959;-78
2023/07/17 00:05:57;;;;;;;;;;;;;;;27.60;93.74;98021.41;5026256;28;20320;-79
2023/07/17 00:08:24;;;;;;;;;;;;;;;27.54;94.21;98018.22;5039924;28;20027;-79
2023/07/17 00:10:50;;;;;;;;;;;;;;;27.53;94.67;98013.88;5033958;28;19931;-78
2023/07/17 00:13:16;;;;;;;;;;;;;;;27.55;94.80;98030.75;5021651;28;19924;-78
2023/07/17 00:15:44;;;;;;;;;;;;;;;27.52;95.14;98019.72;5039155;28;20024;-79
2023/07/17 00:18:11;;;;;;;;;;;;;;;27.53;95.25;98029.53;5045186;28;19939;-79
2023/07/17 00:20:38;;;;;;;;;;;;;;;27.53;95.19;98027.59;5040963;28;19948;-79
2023/07/17 00:23:04;;;;;;;;;;;;;;;27.52;95.49;98028.75;5042533;28;20521;-78
2023/07/17 00:25:30;;;;;;;;;;;;;;;27.50;95.78;98035.78;5044933;28;19931;-79
2023/07/17 00:27:56;;;;;;;;;;;;;;;27.50;95.79;98028.34;5046533;28;19925;-79
2023/07/17 00:30:23;;;;;;;;;;;;;;;27.52;95.39;98026.00;5042103;28;19929;-79
2023/07/17 00:32:50;;;;;;;;;;;;;;;27.53;95.52;98032.28;5013545;28;19947;-79
2023/07/17 00:35:17;;;;;;;;;;;;;;;27.53;95.62;98026.78;5039600;28;20391;-80
2023/07/17 00:37:43;;;;;;;;;;;;;;;27.51;95.93;98015.41;5044151;28;19925;-79
2023/07/17 00:40:10;;;;;;;;;;;;;;;27.47;96.24;98015.38;5035414;28;19935;-80
2023/07/17 00:42:36;;;;;;;;;;;;;;;27.50;95.92;98014.63;5043969;28;19933;-79
2023/07/17 00:45:03;;;;;;;;;;;;;;;27.49;96.24;98021.25;5025998;28;20019;-79
2023/07/17 00:47:30;;;;;;;;;;;;;;;27.48;96.07;98019.66;5042642;28;20458;-79
2023/07/17 00:49:57;;;;;;;;;;;;;;;27.46;96.18;98018.47;5044930;28;19924;-80
2023/07/17 00:52:25;;;;;;;;;;;;;;;27.44;96.57;98031.75;5041620;28;19925;-78
2023/07/17 00:54:51;;;;;;;;;;;;;;;27.45;96.40;98038.84;5021702;28;20304;-78
2023/07/17 00:57:19;;;;;;;;;;;;;;;27.41;96.82;98029.72;5044719;28;19925;-80
2023/07/17 00:59:46;;;;;;;;;;;;;;;27.37;97.09;98024.19;5046118;28;20477;-79
2023/07/17 01:02:13;;;;;;;;;;;;;;;27.08;99.18;98013.97;5041854;28;19972;-79
2023/07/17 01:04:43;;;;;;;;;;;;;;;26.92;100.00;98005.09;5057357;28;19924;-79
2023/07/17 01:07:11;;;;;;;;;;;;;;;26.75;100.00;97998.94;5038953;28;19925;-79
2023/07/17 01:09:37;;;;;;;;;;;;;;;26.76;100.00;97994.25;5057343;28;20396;-79
2023/07/17 01:12:04;;;;;;;;;;;;;;;26.57;100.00;97997.06;5044619;28;19931;-79
2023/07/17 01:14:30;;;;;;;;;;;;;;;26.16;100.00;98004.94;5033597;28;19935;-79
2023/07/17 01:16:57;;;;;;;;;;;;;;;26.17;100.00;98016.69;5046852;28;19968;-79
2023/07/17 01:19:23;;;;;;;;;;;;;;;26.48;100.00;98032.91;5039428;28;19962;-78
2023/07/17 01:21:51;;;;;;;;;;;;;;;26.72;100.00;98035.28;5039779;28;20414;-79
2023/07/17 01:24:18;;;;;;;;;;;;;;;26.96;100.00;98038.81;5048771;28;19932;-79
2023/07/17 01:26:45;;;;;;;;;;;;;;;27.05;100.00;98050.34;5056705;28;20126;-81
2023/07/17 01:29:11;;;;;;;;;;;;;;;27.10;99.62;98047.28;5045637;28;19925;-78
2023/07/17 01:31:38;;;;;;;;;;;;;;;27.20;99.51;98047.44;5053522;28;19931;-80
2023/07/17 01:34:05;;;;;;;;;;;;;;;27.24;98.76;98058.47;5040659;28;20057;-80
2023/07/17 01:36:31;;;;;;;;;;;;;;;27.19;99.71;98076.03;5065513;28;19938;-79
2023/07/17 01:38:57;;;;;;;;;;;;;;;27.13;99.66;98080.25;5044844;28;19928;-78
2023/07/17 01:41:25;;;;;;;;;;;;;;;27.23;98.37;98079.59;5040361;28;19943;-81
2023/07/17 01:43:51;;;;;;;;;;;;;;;27.29;97.90;98086.38;5045383;28;20438;-80
2023/07/17 01:46:18;;;;;;;;;;;;;;;27.29;99.64;98077.38;5046234;28;20034;-79
2023/07/17 01:48:44;;;;;;;;;;;;;;;27.18;100.00;98065.41;5044779;28;19932;-80
2023/07/17 01:51:11;;;;;;;;;;;;;;;27.09;100.00;98067.63;5041838;28;19935;-79
2023/07/17 01:53:37;;;;;;;;;;;;;;;26.73;100.00;98067.03;5027668;28;19935;-80
2023/07/17 01:56:03;;;;;;;;;;;;;;;26.83;100.00;98070.34;5042232;28;20006;-80
2023/07/17 01:58:31;;;;;;;;;;;;;;;26.68;100.00;98053.59;5022913;28;19929;-78
2023/07/17 02:00:57;;;;;;;;;;;;;;;26.68;100.00;98039.91;5045387;28;20019;-80
2023/07/17 02:03:24;;;;;;;;;;;;;;;26.75;100.00;98044.72;5041799;28;19925;-78
2023/07/17 02:05:51;;;;;;;;;;;;;;;26.46;100.00;98035.19;5044119;28;19933;-81
2023/07/17 02:08:17;;;;;;;;;;;;;;;26.23;100.00;98026.19;5040812;28;19929;-79
2023/07/17 02:10:44;;;;;;;;;;;;;;;25.71;100.00;98030.22;5043233;28;19939;-79
2023/07/17 02:13:10;;;;;;;;;;;;;;;25.38;100.00;98023.59;5041526;28;19925;-79
2023/07/17 02:15:38;;;;;;;;;;;;;;;25.21;100.00;98030.22;5041116;28;20050;-79
2023/07/17 02:18:04;;;;;;;;;;;;;;;25.60;100.00;98031.91;5041220;28;19925;-78
2023/07/17 02:20:31;;;;;;;;;;;;;;;26.00;100.00;98028.03;5044271;28;20051;-79
2023/07/17 02:22:57;;;;;;;;;;;;;;;26.23;100.00;98037.13;5041673;28;19950;-78
2023/07/17 02:25:23;;;;;;;;;;;;;;;26.50;100.00;98055.25;5054095;28;19933;-78
2023/07/17 02:27:50;;;;;;;;;;;;;;;26.66;100.00;98061.41;5057230;28;19931;-79
2023/07/17 02:30:16;;;;;;;;;;;;;;;26.77;100.00;98050.63;5043567;28;19924;-79
2023/07/17 02:32:44;;;;;;;;;;;;;;;26.85;100.00;98070.75;5053566;28;19929;-78
2023/07/17 02:35:10;;;;;;;;;;;;;;;26.93;100.00;98064.22;5044621;28;20023;-79
2023/07/17 02:37:37;;;;;;;;;;;;;;;26.94;100.00;98071.28;5049005;28;19925;-79
2023/07/17 02:40:10;;;;;;;;;;;;;;;26.98;100.00;98072.94;5048235;28;19933;-79
2023/07/17 02:42:36;;;;;;;;;;;;;;;27.01;100.00;98083.19;5047730;28;19944;-79
2023/07/17 02:45:03;;;;;;;;;;;;;;;27.01;100.00;98090.63;5054652;28;20363;-78
2023/07/17 02:47:29;;;;;;;;;;;;;;;26.95;100.00;98105.78;5045769;28;20023;-79
2023/07/17 02:49:57;;;;;;;;;;;;;;;27.00;100.00;98100.78;5050838;28;20027;-78
2023/07/17 02:52:23;;;;;;;;;;;;;;;27.00;100.00;98095.28;5044022;28;19932;-79
2023/07/17 02:54:50;;;;;;;;;;;;;;;27.00;100.00;98102.72;5049393;28;19935;-80
2023/07/17 02:57:16;;;;;;;;;;;;;;;27.01;100.00;98112.53;5042521;28;19931;-79
2023/07/17 02:59:42;;;;;;;;;;;;;;;27.01;100.00;98116.06;5046848;28;19932;-78
2023/07/17 03:02:09;;;;;;;;;;;;;;;26.95;100.00;98094.81;5019204;28;19928;-79
2023/07/17 03:04:35;;;;;;;;;;;;;;;26.38;100.00;98085.53;5035604;28;20553;-78
2023/07/17 03:07:03;;;;;;;;;;;;;;;25.91;100.00;98090.38;5058398;28;20374;-79
2023/07/17 03:09:29;;;;;;;;;;;;;;;25.81;100.00;98077.28;5043650;28;20571;-78
2023/07/17 03:11:56;;;;;;;;;;;;;;;25.99;100.00;98070.25;5050932;28;19936;-78
2023/07/17 03:14:22;;;;;;;;;;;;;;;26.27;100.00;98076.31;5035812;28;19925;-78
2023/07/17 03:16:48;;;;;;;;;;;;;;;26.39;100.00;98072.63;5059390;28;19924;-78
2023/07/17 03:19:15;;;;;;;;;;;;;;;26.58;100.00;98067.94;5040785;28;19932;-78
2023/07/17 03:21:41;;;;;;;;;;;;;;;26.65;100.00;98064.50;5040273;28;19940;-77
2023/07/17 03:24:09;;;;;;;;;;;;;;;25.66;100.00;98041.41;5037991;28;20004;-77
2023/07/17 03:26:35;;;;;;;;;;;;;;;25.11;100.00;98037.03;5046738;28;19925;-78
2023/07/17 03:29:01;;;;;;;;;;;;;;;25.67;100.00;98059.41;5044895;28;20028;-78
2023/07/17 03:31:28;;;;;;;;;;;;;;;25.96;100.00;98065.50;5052334;28;19935;-79
2023/07/17 03:33:54;;;;;;;;;;;;;;;26.21;100.00;98059.38;5057889;28;19929;-78
2023/07/17 03:36:20;;;;;;;;;;;;;;;26.33;100.00;98063.94;5052747;28;19925;-78
2023/07/17 03:38:47;;;;;;;;;;;;;;;26.45;100.00;98063.75;5029330;28;19925;-78
2023/07/17 03:41:17;;;;;;;;;;;;;;;26.01;100.00;98067.94;5042358;28;20023;-78
2023/07/17 03:43:43;;;;;;;;;;;;;;;25.77;100.00;98049.84;5059195;28;19975;-77
2023/07/17 03:46:10;;;;;;;;;;;;;;;25.91;100.00;98047.41;5047343;28;20464;-78
2023/07/17 03:48:37;;;;;;;;;;;;;;;26.02;100.00;98047.63;5058021;28;20360;-79
2023/07/17 03:51:03;;;;;;;;;;;;;;;26.14;100.00;98039.28;5046232;28;20773;-78
2023/07/17 03:53:29;;;;;;;;;;;;;;;25.87;100.00;98048.50;5053047;28;20068;-77
2023/07/17 03:55:56;;;;;;;;;;;;;;;25.85;100.00;98059.00;5029564;28;19924;-78
2023/07/17 03:58:23;;;;;;;;;;;;;;;25.85;100.00;98075.41;5047658;28;20019;-77
2023/07/17 04:00:50;;;;;;;;;;;;;;;26.07;100.00;98080.97;5057801;28;19939;-78
2023/07/17 04:03:16;;;;;;;;;;;;;;;26.27;100.00;98088.03;5047784;28;19931;-78
2023/07/17 04:05:44;;;;;;;;;;;;;;;26.41;100.00;98082.06;5058135;28;19924;-77
2023/07/17 04:08:10;;;;;;;;;;;;;;;26.48;100.00;98079.47;5057597;28;19932;-78
2023/07/17 04:10:36;;;;;;;;;;;;;;;26.47;100.00;98074.34;5051636;28;19935;-78
2023/07/17 04:13:03;;;;;;;;;;;;;;;26.39;100.00;98089.06;5068378;28;20023;-78
2023/07/17 04:15:31;;;;;;;;;;;;;;;26.40;100.00;98091.44;5053689;28;20386;-77
2023/07/17 04:17:58;;;;;;;;;;;;;;;26.38;100.00;98092.94;5049521;28;19929;-78
2023/07/17 04:20:25;;;;;;;;;;;;;;;26.31;100.00;98090.84;5046359;28;19936;-79
2023/07/17 04:22:51;;;;;;;;;;;;;;;26.10;100.00;98101.34;5027777;28;20372;-78
2023/07/17 04:25:17;;;;;;;;;;;;;;;26.00;100.00;98091.78;5052796;28;19929;-79
2023/07/17 04:27:44;;;;;;;;;;;;;;;26.03;100.00;98101.19;5040803;28;19933;-79
2023/07/17 04:30:11;;;;;;;;;;;;;;;26.14;100.00;98108.50;5046386;28;19994;-78
2023/07/17 04:32:38;;;;;;;;;;;;;;;26.25;100.00;98108.72;5054383;28;20422;-77
2023/07/17 04:35:05;;;;;;;;;;;;;;;26.38;100.00;98112.13;5028999;28;19925;-79
2023/07/17 04:37:31;;;;;;;;;;;;;;;26.48;100.00;98128.78;5051259;28;19931;-78
2023/07/17 04:39:58;;;;;;;;;;;;;;;26.51;100.00;98122.56;5013112;28;19928;-79
2023/07/17 04:42:24;;;;;;;;;;;;;;;26.55;100.00;98114.41;5044194;28;20012;-79
2023/07/17 04:44:50;;;;;;;;;;;;;;;26.44;100.00;98088.75;5056633;28;19959;-79
2023/07/17 04:47:17;;;;;;;;;;;;;;;26.21;100.00;98091.47;5048037;28;19931;-79
2023/07/17 04:49:44;;;;;;;;;;;;;;;25.89;100.00;98109.91;5053415;28;20031;-78
2023/07/17 04:52:11;;;;;;;;;;;;;;;25.91;100.00;98107.59;5046118;28;20398;-79
2023/07/17 04:54:37;;;;;;;;;;;;;;;25.89;100.00;98123.59;5018515;28;20484;-78
2023/07/17 04:57:04;;;;;;;;;;;;;;;26.05;100.00;98118.06;5035878;28;19925;-78
2023/07/17 04:59:30;;;;;;;;;;;;;;;26.19;100.00;98121.13;5049358;28;19924;-78
2023/07/17 05:01:57;;;;;;;;;;;;;;;26.29;100.00;98121.34;5055871;28;19928;-78
2023/07/17 05:04:23;;;;;;;;;;;;;;;26.00;100.00;98116.41;5042292;28;19971;-78
2023/07/17 05:06:51;;;;;;;;;;;;;;;25.59;100.00;98119.81;5042048;28;19935;-78
2023/07/17 05:09:18;;;;;;;;;;;;;;;25.54;100.00;98120.06;5027088;28;19932;-78
2023/07/17 05:11:44;;;;;;;;;;;;;;;25.63;100.00;98128.84;5044049;28;19940;-78
2023/07/17 05:14:11;;;;;;;;;;;;;;;25.49;100.00;98126.59;5043557;28;19929;-77
2023/07/17 05:16:37;;;;;;;;;;;;;;;25.25;100.00;98134.97;5044258;28;19933;-77
2023/07/17 05:19:03;;;;;;;;;;;;;;;25.32;100.00;98146.06;5019236;28;19932;-77
2023/07/17 05:21:30;;;;;;;;;;;;;;;25.65;100.00;98160.19;5042811;28;20102;-78
2023/07/17 05:23:57;;;;;;;;;;;;;;;25.86;100.00;98172.78;5035942;28;19925;-77
2023/07/17 05:26:24;;;;;;;;;;;;;;;25.95;100.00;98173.38;5056435;28;20168;-78
2023/07/17 05:28:51;;;;;;;;;;;;;;;26.01;100.00;98177.41;5042938;28;19932;-78
2023/07/17 05:31:17;;;;;;;;;;;;;;;26.02;100.00;98182.53;5044962;28;19931;-78
2023/07/17 05:33:44;;;;;;;;;;;;;;;26.10;100.00;98183.47;5049852;28;19929;-77
2023/07/17 05:36:10;;;;;;;;;;;;;;;26.20;100.00;98188.44;5045995;28;19936;-78
2023/07/17 05:38:36;;;;;;;;;;;;;;;26.25;100.00;98182.66;5050342;28;20442;-78
2023/07/17 05:41:04;;;;;;;;;;;;;;;26.29;100.00;98186.28;5040614;28;20442;-78
2023/07/17 05:43:30;;;;;;;;;;;;;;;26.33;100.00;98191.81;5056677;28;19931;-79
2023/07/17 05:45:57;;;;;;;;;;;;;;;26.31;100.00;98192.16;5046567;28;19929;-77
2023/07/17 05:48:23;;;;;;;;;;;;;;;26.31;100.00;98194.91;5052562;28;20577;-77
2023/07/17 05:50:49;;;;;;;;;;;;;;;26.35;100.00;98195.00;5047042;28;19958;-77
2023/07/17 05:53:16;;;;;;;;;;;;;;;26.40;100.00;98195.50;5046959;28;19932;-78
2023/07/17 05:55:43;;;;;;;;;;;;;;;26.42;100.00;98190.47;5057515;28;19943;-77
2023/07/17 05:58:11;;;;;;;;;;;;;;;26.46;100.00;98194.06;5046545;28;19929;-77
2023/07/17 06:00:37;;;;;;;;;;;;;;;26.42;100.00;98195.94;5056752;28;20011;-77
2023/07/17 06:03:04;;;;;;;;;;;;;;;26.43;100.00;98205.72;5044922;28;20032;-78
2023/07/17 06:05:30;;;;;;;;;;;;;;;26.41;100.00;98208.03;5053963;28;19931;-77
2023/07/17 06:07:57;;;;;;;;;;;;;;;26.42;100.00;98208.84;5045713;28;19973;-77
2023/07/17 06:10:23;;;;;;;;;;;;;;;26.34;100.00;98212.59;5030959;28;19936;-77
2023/07/17 06:12:50;;;;;;;;;;;;;;;25.93;100.00;98208.50;5046793;28;19935;-78
2023/07/17 06:15:18;;;;;;;;;;;;;;;26.01;100.00;98215.72;5043364;28;19933;-77
2023/07/17 06:17:44;;;;;;;;;;;;;;;26.03;100.00;98219.69;5059837;28;19944;-78
2023/07/17 06:20:10;;;;;;;;;;;;;;;26.09;100.00;98221.00;5041217;28;19936;-77
2023/07/17 06:22:37;;;;;;;;;;;;;;;26.18;100.00;98234.53;5016230;28;19975;-78
2023/07/17 06:25:04;;;;;;;;;;;;;;;26.27;98.87;98227.69;5048100;28;20423;-77
2023/07/17 06:27:30;;;;;;;;;;;;;;;26.37;97.49;98223.59;5053342;28;20523;-77
2023/07/17 06:29:56;;;;;;;;;;;;;;;26.29;96.30;98232.81;5040857;28;19924;-78
2023/07/17 06:32:24;;;;;;;;;;;;;;;26.27;97.11;98235.13;5036308;28;19936;-78
2023/07/17 06:34:51;;;;;;;;;;;;;;;26.24;95.73;98233.09;5045960;28;20011;-78
2023/07/17 06:37:17;;;;;;;;;;;;;;;26.10;93.58;98232.75;5049582;28;19925;-78
2023/07/17 06:39:43;;;;;;;;;;;;;;;26.15;92.13;98214.13;5042794;28;19929;-78
2023/07/17 06:42:10;;;;;;;;;;;;;;;26.10;91.53;98202.63;5047193;28;19940;-78
2023/07/17 06:44:36;;;;;;;;;;;;;;;26.22;90.44;98218.97;5053480;28;19925;-77
2023/07/17 06:47:02;;;;;;;;;;;;;;;26.30;90.17;98213.28;5057956;28;20019;-77
2023/07/17 06:49:30;;;;;;;;;;;;;;;26.18;90.27;98220.84;5050870;28;19925;-77
2023/07/17 06:51:56;;;;;;;;;;;;;;;26.24;88.86;98225.66;5043208;28;20379;-77
2023/07/17 06:54:23;;;;;;;;;;;;;;;26.30;88.76;98223.47;5049008;28;19925;-78
2023/07/17 06:56:49;;;;;;;;;;;;;;;26.31;88.18;98230.50;5042265;28;20340;-77
2023/07/17 06:59:15;;;;;;;;;;;;;;;26.44;87.86;98240.19;5029044;28;20449;-78
2023/07/17 07:01:42;;;;;;;;;;;;;;;26.32;88.08;98258.69;5022202;28;19975;-78
2023/07/17 07:04:08;;;;;;;;;;;;;;;26.31;87.18;98255.16;5045147;28;19929;-78
2023/07/17 07:06:36;;;;;;;;;;;;;;;26.36;86.70;98259.56;5032799;28;19933;-77
2023/07/17 07:09:03;;;;;;;;;;;;;;;26.31;85.67;98266.09;5044537;28;20265;-77
2023/07/17 07:11:29;;;;;;;;;;;;;;;26.39;85.48;98258.84;5048771;28;19951;-79
2023/07/17 07:13:55;;;;;;;;;;;;;;;26.39;85.25;98248.69;5042268;28;19948;-79
2023/07/17 07:16:22;;;;;;;;;;;;;;;26.21;83.33;98242.81;5029359;28;20012;-78
2023/07/17 07:18:48;;;;;;;;;;;;;;;26.05;87.15;98249.44;5042943;28;20046;-78
2023/07/17 07:21:14;;;;;;;;;;;;;;;26.12;86.09;98252.34;5053320;28;19931;-78
2023/07/17 07:23:42;;;;;;;;;;;;;;;26.34;83.85;98253.66;5045742;28;19929;-78
2023/07/17 07:26:08;;;;;;;;;;;;;;;26.30;82.25;98250.84;5054132;28;19928;-78
2023/07/17 07:28:35;;;;;;;;;;;;;;;26.35;82.84;98256.03;5036700;28;20020;-78
2023/07/17 07:31:02;;;;;;;;;;;;;;;26.41;83.40;98256.53;5030688;28;19929;-78
2023/07/17 07:33:28;;;;;;;;;;;;;;;26.42;83.27;98256.19;5041426;28;20092;-77
2023/07/17 07:35:55;;;;;;;;;;;;;;;26.44;82.86;98259.34;5049569;28;19924;-77
2023/07/17 07:38:21;;;;;;;;;;;;;;;26.41;82.83;98265.56;5034563;28;19928;-78
2023/07/17 07:40:49;;;;;;;;;;;;;;;26.63;82.68;98269.53;5044560;28;20475;-78
2023/07/17 07:43:15;;;;;;;;;;;;;;;26.51;82.07;98265.00;5037513;28;19928;-78
2023/07/17 07:45:41;;;;;;;;;;;;;;;26.40;81.04;98274.91;5035067;28;20023;-78
2023/07/17 07:48:08;;;;;;;;;;;;;;;26.51;82.52;98278.69;5050003;28;20020;-77
2023/07/17 07:50:35;;;;;;;;;;;;;;;26.43;83.73;98276.16;5052326;28;19928;-77
2023/07/17 07:53:01;;;;;;;;;;;;;;;26.55;83.64;98287.00;5045421;28;19929;-78
2023/07/17 07:55:27;;;;;;;;;;;;;;;26.58;84.48;98278.06;5053504;28;19931;-78
2023/07/17 07:57:55;;;;;;;;;;;;;;;26.67;83.70;98276.69;5043363;28;19929;-78
2023/07/17 08:00:21;;;;;;;;;;;;;;;26.77;80.96;98278.84;5038889;28;19924;-77
2023/07/17 08:02:49;;;;;;;;;;;;;;;26.68;74.69;98267.31;5051161;28;19959;-78
2023/07/17 08:05:15;;;;;;;;;;;;;;;26.75;79.64;98280.38;5051811;28;19924;-77
2023/07/17 08:07:41;;;;;;;;;;;;;;;27.08;77.69;98274.41;5052219;28;20015;-78
2023/07/17 08:10:08;;;;;;;;;;;;;;;27.27;75.22;98268.88;5046182;28;19929;-77
2023/07/17 08:12:35;;;;;;;;;;;;;;;27.20;69.79;98264.06;5052198;28;19928;-78
2023/07/17 08:15:02;;;;;;;;;;;;;;;27.17;72.39;98266.75;5042181;28;20015;-78
2023/07/17 08:17:29;;;;;;;;;;;;;;;27.09;70.11;98259.53;5037383;28;19959;-78
2023/07/17 08:19:55;;;;;;;;;;;;;;;27.43;69.25;98269.63;5024155;28;19928;-78
2023/07/17 08:22:21;;;;;;;;;;;;;;;27.68;66.39;98257.13;5042543;28;19935;-77
2023/07/17 08:24:48;;;;;;;;;;;;;;;27.68;66.34;98262.59;5052564;28;19935;-79
2023/07/17 08:27:14;;;;;;;;;;;;;;;27.44;65.61;98270.41;5054337;28;20008;-77
2023/07/17 08:29:40;;;;;;;;;;;;;;;27.76;66.64;98267.03;5046937;28;19925;-77
2023/07/17 08:32:09;;;;;;;;;;;;;;;28.05;65.85;98270.28;5046145;28;20390;-78
2023/07/17 08:34:35;;;;;;;;;;;;;;;27.98;64.88;98264.66;5035516;28;19925;-78
2023/07/17 08:37:02;;;;;;;;;;;;;;;27.45;59.96;98258.28;5045516;28;19929;-77
2023/07/17 08:39:28;;;;;;;;;;;;;;;27.16;64.27;98270.66;5043123;28;20515;-77
2023/07/17 08:41:54;;;;;;;;;;;;;;;27.54;64.91;98267.88;5033197;28;19929;-78
2023/07/17 08:44:22;;;;;;;;;;;;;;;28.02;62.98;98262.75;5054612;28;20003;-78
2023/07/17 08:46:48;;;;;;;;;;;;;;;28.20;62.64;98269.31;5050161;28;19935;-78
2023/07/17 08:49:18;;;;;;;;;;;;;;;28.38;61.82;98273.13;5053009;28;20396;-78
2023/07/17 08:51:47;;;;;;;;;;;;;;;28.55;61.50;98274.53;5046486;28;19925;-79
2023/07/17 08:54:15;;;;;;;;;;;;;;;28.66;60.70;98273.53;5053138;28;19933;-78
2023/07/17 08:56:41;;;;;;;;;;;;;;;28.48;60.78;98271.69;5058418;28;19929;-78
2023/07/17 08:59:08;;;;;;;;;;;;;;;28.42;60.96;98271.22;5060262;28;19955;-79
2023/07/17 09:01:34;;;;;;;;;;;;;;;28.41;57.82;98275.91;5046626;28;19931;-78
2023/07/17 09:04:02;;;;;;;;;;;;;;;28.32;60.30;98274.59;5020896;28;20041;-78
2023/07/17 09:06:30;;;;;;;;;;;;;;;28.07;57.40;98276.22;5046625;28;19932;-78
2023/07/17 09:08:56;;;;;;;;;;;;;;;27.85;58.96;98264.06;5044478;28;19932;-80
2023/07/17 09:11:22;;;;;;;;;;;;;;;28.44;59.47;98266.16;5044396;28;19935;-77
2023/07/17 09:13:49;;;;;;;;;;;;;;;28.79;59.15;98269.41;5045632;28;19964;-78
2023/07/17 09:16:18;;;;;;;;;;;;;;;29.02;57.83;98273.97;5041730;28;19928;-78
2023/07/17 09:18:44;;;;;;;;;;;;;;;28.59;55.45;98275.38;5037733;28;19972;-79
2023/07/17 09:21:12;;;;;;;;;;;;;;;28.63;59.21;98278.94;5050676;28;20302;-78
2023/07/17 09:23:40;;;;;;;;;;;;;;;28.97;58.68;98279.84;5044306;28;20632;-79
2023/07/17 09:26:07;;;;;;;;;;;;;;;28.47;57.57;98278.38;5054685;28;19925;-80
2023/07/17 09:28:36;;;;;;;;;;;;;;;28.64;59.75;98284.09;5053093;28;19975;-78
2023/07/17 09:31:03;;;;;;;;;;;;;;;29.22;58.26;98281.69;5045731;28;19925;-78
2023/07/17 09:33:29;;;;;;;;;;;;;;;29.34;57.70;98280.63;5052822;28;19931;-77
2023/07/17 09:35:56;;;;;;;;;;;;;;;29.25;58.25;98280.16;5041166;28;19952;-78
2023/07/17 09:38:23;;;;;;;;;;;;;;;29.40;57.93;98271.66;5042427;28;20487;-78
2023/07/17 09:40:50;;;;;;;;;;;;;;;29.38;58.51;98268.53;5025737;28;19928;-78
2023/07/17 09:43:28;;;;;;;;;;;;;;;29.40;58.50;98268.91;5055394;28;20676;-78
2023/07/17 09:45:55;;;;;;;;;;;;;;;29.36;58.22;98264.56;5047649;28;20507;-77
2023/07/17 09:48:22;;;;;;;;;;;;;;;29.27;59.10;98266.84;5051937;28;19925;-78
2023/07/17 09:50:48;;;;;;;;;;;;;;;29.27;59.28;98272.34;5040200;28;19925;-78
2023/07/17 09:53:15;;;;;;;;;;;;;;;29.15;59.45;98272.56;5050073;28;19929;-78
2023/07/17 09:55:42;;;;;;;;;;;;;;;29.10;59.02;98261.88;5049892;28;19939;-78
2023/07/17 09:58:10;;;;;;;;;;;;;;;29.34;58.91;98262.19;5052371;28;20499;-77
2023/07/17 10:00:40;;;;;;;;;;;;;;;29.24;58.79;98259.34;5056598;28;19931;-77
2023/07/17 10:03:08;;;;;;;;;;;;;;;29.40;59.41;98262.66;5038166;28;19951;-78
2023/07/17 10:05:36;;;;;;;;;;;;;;;29.49;58.66;98260.38;5039183;28;19985;-78
2023/07/17 10:08:04;;;;;;;;;;;;;;;29.61;57.78;98256.53;5044543;28;19926;-79
2023/07/17 10:10:30;;;;;;;;;;;;;;;29.55;58.15;98271.81;5051157;28;20589;-79
2023/07/17 10:12:57;;;;;;;;;;;;;;;29.60;58.12;98255.75;5045256;28;19975;-78
2023/07/17 10:15:25;;;;;;;;;;;;;;;29.63;57.63;98260.50;5045571;28;19935;-78
2023/07/17 10:17:56;;;;;;;;;;;;;;;29.78;57.53;98253.13;5048969;28;19975;-77
2023/07/17 10:20:25;;;;;;;;;;;;;;;29.48;57.57;98245.03;5041794;28;21470;-78
2023/07/17 10:22:51;;;;;;;;;;;;;;;29.57;57.68;98241.97;5043371;28;19925;-78
2023/07/17 10:25:26;;;;;;;;;;;;;;;29.71;57.47;98253.88;5030075;28;19929;-77
2023/07/17 10:27:53;;;;;;;;;;;;;;;29.80;57.67;98240.56;5054844;28;19970;-78
2023/07/17 10:30:25;;;;;;;;;;;;;;;29.83;55.65;98242.59;5043665;28;19936;-78
2023/07/17 10:33:10;;;;;;;;;;;;;;;29.75;56.54;98238.19;5051048;28;20015;-78
2023/07/17 10:35:57;;;;;;;;;;;;;;;29.74;57.50;98246.84;5033896;28;19932;-77
2023/07/17 10:38:49;;;;;;;;;;;;;;;29.83;57.15;98234.31;5014776;28;19964;-78
2023/07/17 10:41:36;;;;;;;;;;;;;;;29.98;56.12;98240.75;5029333;28;19931;-78
2023/07/17 10:44:23;;;;;;;;;;;;;;;30.03;55.34;98231.31;5030540;28;19925;-78
2023/07/17 10:46:51;;;;;;;;;;;;;;;29.79;56.28;98218.94;5044557;28;19933;-80
2023/07/17 10:49:18;;;;;;;;;;;;;;;29.84;55.49;98222.16;5050710;28;20107;-78
2023/07/17 10:51:45;;;;;;;;;;;;;;;29.78;56.22;98226.41;5043069;28;19998;-77
2023/07/17 10:54:12;;;;;;;;;;;;;;;29.61;55.07;98227.06;5049273;28;19928;-79
2023/07/17 10:56:38;;;;;;;;;;;;;;;29.53;55.46;98214.41;5042164;28;20020;-78
2023/07/17 10:59:05;;;;;;;;;;;;;;;29.55;55.45;98206.56;5047780;28;20427;-77
2023/07/17 11:01:31;;;;;;;;;;;;;;;29.51;56.23;98211.25;5053645;28;19925;-77
2023/07/17 11:04:18;;;;;;;;;;;;;;;29.60;55.77;98214.47;5047759;28;20376;-78
2023/07/17 11:06:44;;;;;;;;;;;;;;;29.68;55.13;98207.06;5052646;28;20015;-78
2023/07/17 11:09:10;;;;;;;;;;;;;;;29.57;56.13;98212.47;5023621;28;19960;-77
2023/07/17 11:11:38;;;;;;;;;;;;;;;29.54;55.77;98204.97;5049882;28;20352;-78
2023/07/17 11:14:04;;;;;;;;;;;;;;;29.47;55.31;98210.41;5034703;28;20019;-78
2023/07/17 11:16:31;;;;;;;;;;;;;;;29.41;55.66;98203.69;5048075;28;20442;-78
2023/07/17 11:18:57;;;;;;;;;;;;;;;29.47;55.83;98196.66;5021211;28;20011;-77
2023/07/17 11:21:26;;;;;;;;;;;;;;;29.59;55.36;98199.13;5051678;28;20420;-78
2023/07/17 11:23:52;;;;;;;;;;;;;;;29.57;55.38;98204.22;5041437;28;19925;-78
2023/07/17 11:26:19;;;;;;;;;;;;;;;29.62;55.59;98192.84;5062793;28;20023;-79
2023/07/17 11:28:50;;;;;;;;;;;;;;;29.52;55.27;98201.03;5055911;28;19960;-77
2023/07/17 11:31:20;;;;;;;;;;;;;;;29.53;56.35;98191.59;5049068;28;20530;-79
2023/07/17 11:33:50;;;;;;;;;;;;;;;29.77;54.95;98194.53;5048592;28;20012;-77
2023/07/17 11:36:16;;;;;;;;;;;;;;;29.80;54.88;98188.25;5046969;28;20019;-77
2023/07/17 11:38:44;;;;;;;;;;;;;;;29.77;55.72;98191.78;5048995;28;19970;-79
2023/07/17 11:41:10;;;;;;;;;;;;;;;29.66;55.88;98185.41;5019456;28;19931;-77
2023/07/17 11:43:37;;;;;;;;;;;;;;;30.00;55.08;98180.56;5056316;28;19924;-78
2023/07/17 11:46:05;;;;;;;;;;;;;;;29.88;54.47;98178.13;5047631;28;20003;-79
2023/07/17 11:48:32;;;;;;;;;;;;;;;29.93;54.46;98184.06;5034511;28;19925;-78
2023/07/17 11:51:01;;;;;;;;;;;;;;;29.86;54.35;98163.97;5037244;28;19931;-77
2023/07/17 11:53:28;;;;;;;;;;;;;;;29.90;54.46;98162.00;5032692;28;19968;-78
2023/07/17 11:55:56;;;;;;;;;;;;;;;29.75;54.29;98149.28;5045524;28;19931;-79
2023/07/17 11:58:23;;;;;;;;;;;;;;;29.73;54.02;98162.66;5027192;28;19932;-78
2023/07/17 12:00:52;;;;;;;;;;;;;;;30.07;52.47;98160.53;5054994;28;19924;-77
2023/07/17 12:03:18;;;;;;;;;;;;;;;29.96;52.66;98152.19;5046514;28;19925;-79
2023/07/17 12:05:45;;;;;;;;;;;;;;;29.98;51.08;98158.13;5057535;28;20019;-78
2023/07/17 12:08:11;;;;;;;;;;;;;;;29.61;52.90;98173.97;5045685;28;19929;-80
2023/07/17 12:10:38;;;;;;;;;;;;;;;29.70;55.03;98161.47;5056037;28;20530;-78
2023/07/17 12:13:06;;;;;;;;;;;;;;;29.61;53.79;98152.75;5046840;28;19925;-79
2023/07/17 12:15:33;;;;;;;;;;;;;;;29.75;52.18;98155.59;5042597;28;19925;-77
2023/07/17 12:17:59;;;;;;;;;;;;;;;29.90;52.71;98139.97;5045932;28;19924;-76
2023/07/17 12:20:26;;;;;;;;;;;;;;;29.88;51.43;98140.38;5048077;28;19931;-78
2023/07/17 12:22:53;;;;;;;;;;;;;;;29.62;53.67;98140.53;5046319;28;19925;-79
2023/07/17 12:25:19;;;;;;;;;;;;;;;29.80;53.43;98130.44;5039576;28;20641;-78
2023/07/17 12:27:47;;;;;;;;;;;;;;;29.82;54.06;98130.09;5024418;28;19947;-78
2023/07/17 12:30:15;;;;;;;;;;;;;;;29.81;53.51;98132.03;5044977;28;19925;-81
2023/07/17 12:32:41;;;;;;;;;;;;;;;29.81;53.50;98120.22;5047201;28;20007;-78
2023/07/17 12:35:08;;;;;;;;;;;;;;;29.68;53.26;98114.25;5039609;28;19925;-78
2023/07/17 12:37:35;;;;;;;;;;;;;;;29.80;52.96;98113.16;5046078;28;19924;-79
2023/07/17 12:40:01;;;;;;;;;;;;;;;29.88;53.38;98110.09;5043168;28;19929;-78
2023/07/17 12:42:28;;;;;;;;;;;;;;;29.99;52.38;98105.41;5039849;28;19935;-77